sensor_id;sensor_type;location;lat;lon;timestamp;pressure;altitude;pressure_sealevel;temperature;humidity
59531;BME280;45349;48.692;8.186;2023-09-30T00:02:03;150221.22;;;16.53;100.00
59531;BME280;45349;48.692;8.186;2023-09-30T00:04:30;150226.22;;;16.55;100.00
59531;BME280;45349;48.692;8.186;2023-09-30T00:07:02;150216.22;;;16.51;100.00
59531;BME280;45349;48.692;8.186;2023-09-30T00:09:29;150222.44;;;16.53;100.00
59531;BME280;45349;48.692;8.186;2023-09-30T00:12:21;150228.72;;;16.56;100.00
59531;BME280;45349;48.692;8.186;2023-09-30T00:14:48;150233.72;;;16.58;100.00
59531;BME280;45349;48.692;8.186;2023-09-30T00:17:15;150228.72;;;16.56;100.00
59531;BME280;45349;48.692;8.186;2023-09-30T00:19:41;150224.94;;;16.55;100.00
59531;BME280;45349;48.692;8.186;2023-09-30T00:22:08;150217.44;;;16.51;100.00
59531;BME280;45349;48.692;8.186;2023-09-30T00:24:34;150214.94;;;16.50;100.00
59531;BME280;45349;48.692;8.186;2023-09-30T00:27:02;150202.44;;;16.45;100.00
59531;BME280;45349;48.692;8.186;2023-09-30T00:29:30;150191.22;;;16.41;100.00
59531;BME280;45349;48.692;8.186;2023-09-30T00:32:02;150177.50;;;16.35;100.00
59531;BME280;45349;48.692;8.186;2023-09-30T00:34:32;150162.50;;;16.29;100.00
59531;BME280;45349;48.692;8.186;2023-09-30T00:37:02;150147.50;;;16.22;100.00
59531;BME280;45349;48.692;8.186;2023-09-30T00:39:29;150136.22;;;16.18;100.00
59531;BME280;45349;48.692;8.186;2023-09-30T00:42:02;150125.00;;;16.13;100.00
59531;BME280;45349;48.692;8.186;2023-09-30T00:44:31;150112.50;;;16.08;100.00
59531;BME280;45349;48.692;8.186;2023-09-30T00:47:02;150088.72;;;15.98;100.00
59531;BME280;45349;48.692;8.186;2023-09-30T00:49:29;150058.72;;;15.86;100.00
59531;BME280;45349;48.692;8.186;2023-09-30T00:52:02;150023.72;;;15.71;100.00
59531;BME280;45349;48.692;8.186;2023-09-30T00:54:30;149976.25;;;15.52;100.00
59531;BME280;45349;48.692;8.186;2023-09-30T00:57:03;149958.75;;;15.44;100.00
59531;BME280;45349;48.692;8.186;2023-09-30T00:59:32;149935.03;;;15.34;100.00
59531;BME280;45349;48.692;8.186;2023-09-30T01:02:02;149917.56;;;15.27;100.00
59531;BME280;45349;48.692;8.186;2023-09-30T01:04:31;149903.78;;;15.22;100.00
59531;BME280;45349;48.692;8.186;2023-09-30T01:07:02;149908.78;;;15.24;100.00
59531;BME280;45349;48.692;8.186;2023-09-30T01:09:29;149926.28;;;15.31;100.00
59531;BME280;45349;48.692;8.186;2023-09-30T01:12:02;149941.28;;;15.37;100.00
59531;BME280;45349;48.692;8.186;2023-09-30T01:14:32;149957.47;;;15.44;100.00
59531;BME280;45349;48.692;8.186;2023-09-30T01:17:02;149968.75;;;15.48;100.00
59531;BME280;45349;48.692;8.186;2023-09-30T01:19:29;149977.47;;;15.52;100.00
59531;BME280;45349;48.692;8.186;2023-09-30T01:22:03;149986.25;;;15.56;100.00
59531;BME280;45349;48.692;8.186;2023-09-30T01:24:38;149993.75;;;15.59;100.00
59531;BME280;45349;48.692;8.186;2023-09-30T01:27:06;150001.25;;;15.62;100.00
59531;BME280;45349;48.692;8.186;2023-09-30T01:29:33;150013.72;;;15.67;100.00
59531;BME280;45349;48.692;8.186;2023-09-30T01:32:02;150027.47;;;15.73;100.00
59531;BME280;45349;48.692;8.186;2023-09-30T01:34:30;150039.94;;;15.78;100.00
59531;BME280;45349;48.692;8.186;2023-09-30T01:37:03;150046.22;;;15.81;100.00
59531;BME280;45349;48.692;8.186;2023-09-30T01:39:30;150052.44;;;15.83;100.00
59531;BME280;45349;48.692;8.186;2023-09-30T01:42:02;150061.28;;;15.87;100.00
59531;BME280;45349;48.692;8.186;2023-09-30T01:44:32;150070.00;;;15.90;100.00
59531;BME280;45349;48.692;8.186;2023-09-30T01:47:02;150077.50;;;15.93;100.00
59531;BME280;45349;48.692;8.186;2023-09-30T01:49:28;150076.22;;;15.93;100.00
59531;BME280;45349;48.692;8.186;2023-09-30T01:52:22;150082.50;;;15.96;100.00
59531;BME280;45349;48.692;8.186;2023-09-30T01:54:48;150087.50;;;15.98;100.00
59531;BME280;45349;48.692;8.186;2023-09-30T01:57:15;150083.72;;;15.96;100.00
59531;BME280;45349;48.692;8.186;2023-09-30T01:59:42;150087.50;;;15.98;100.00
59531;BME280;45349;48.692;8.186;2023-09-30T02:02:08;150078.72;;;15.94;100.00
59531;BME280;45349;48.692;8.186;2023-09-30T02:04:35;150078.72;;;15.94;100.00
59531;BME280;45349;48.692;8.186;2023-09-30T02:07:02;150076.22;;;15.93;100.00
59531;BME280;45349;48.692;8.186;2023-09-30T02:09:30;150080.00;;;15.94;100.00
59531;BME280;45349;48.692;8.186;2023-09-30T02:12:02;150086.22;;;15.97;100.00
59531;BME280;45349;48.692;8.186;2023-09-30T02:14:29;150077.50;;;15.93;100.00
59531;BME280;45349;48.692;8.186;2023-09-30T02:17:02;150071.22;;;15.91;100.00
59531;BME280;45349;48.692;8.186;2023-09-30T02:19:30;150059.94;;;15.86;100.00
59531;BME280;45349;48.692;8.186;2023-09-30T02:22:02;150061.28;;;15.87;100.00
59531;BME280;45349;48.692;8.186;2023-09-30T02:24:31;150056.22;;;15.85;100.00
59531;BME280;45349;48.692;8.186;2023-09-30T02:27:03;150061.28;;;15.87;100.00
59531;BME280;45349;48.692;8.186;2023-09-30T02:29:29;150052.44;;;15.83;100.00
59531;BME280;45349;48.692;8.186;2023-09-30T02:32:02;150053.72;;;15.84;100.00
59531;BME280;45349;48.692;8.186;2023-09-30T02:34:30;150049.94;;;15.82;100.00
59531;BME280;45349;48.692;8.186;2023-09-30T02:37:02;150054.94;;;15.84;100.00
59531;BME280;45349;48.692;8.186;2023-09-30T02:39:29;150046.22;;;15.81;100.00
59531;BME280;45349;48.692;8.186;2023-09-30T02:42:22;150043.72;;;15.79;100.00
59531;BME280;45349;48.692;8.186;2023-09-30T02:44:50;150044.97;;;15.80;100.00
59531;BME280;45349;48.692;8.186;2023-09-30T02:47:16;150048.72;;;15.82;100.00
59531;BME280;45349;48.692;8.186;2023-09-30T02:49:43;150048.72;;;15.82;100.00
59531;BME280;45349;48.692;8.186;2023-09-30T02:52:10;150053.72;;;15.84;100.00
59531;BME280;45349;48.692;8.186;2023-09-30T02:54:36;150059.94;;;15.86;100.00
59531;BME280;45349;48.692;8.186;2023-09-30T02:57:03;150062.50;;;15.87;100.00
59531;BME280;45349;48.692;8.186;2023-09-30T02:59:31;150057.44;;;15.85;100.00
59531;BME280;45349;48.692;8.186;2023-09-30T03:02:02;150061.28;;;15.87;100.00
59531;BME280;45349;48.692;8.186;2023-09-30T03:04:29;150056.22;;;15.85;100.00
59531;BME280;45349;48.692;8.186;2023-09-30T03:07:20;150065.00;;;15.88;100.00
59531;BME280;45349;48.692;8.186;2023-09-30T03:09:48;150063.78;;;15.88;100.00
59531;BME280;45349;48.692;8.186;2023-09-30T03:12:15;150059.94;;;15.86;100.00
59531;BME280;45349;48.692;8.186;2023-09-30T03:14:44;150056.22;;;15.85;100.00
59531;BME280;45349;48.692;8.186;2023-09-30T03:17:10;150056.22;;;15.85;100.00
59531;BME280;45349;48.692;8.186;2023-09-30T03:19:37;150058.72;;;15.86;100.00
59531;BME280;45349;48.692;8.186;2023-09-30T03:22:04;150059.94;;;15.86;100.00
59531;BME280;45349;48.692;8.186;2023-09-30T03:24:37;150058.72;;;15.86;100.00
59531;BME280;45349;48.692;8.186;2023-09-30T03:27:03;150058.72;;;15.86;100.00
59531;BME280;45349;48.692;8.186;2023-09-30T03:29:30;150059.94;;;15.86;100.00
59531;BME280;45349;48.692;8.186;2023-09-30T03:32:03;150066.28;;;15.89;100.00
59531;BME280;45349;48.692;8.186;2023-09-30T03:34:30;150063.78;;;15.88;100.00
59531;BME280;45349;48.692;8.186;2023-09-30T03:37:02;150058.72;;;15.86;100.00
59531;BME280;45349;48.692;8.186;2023-09-30T03:39:31;150042.44;;;15.79;100.00
59531;BME280;45349;48.692;8.186;2023-09-30T03:42:02;150039.94;;;15.78;100.00
59531;BME280;45349;48.692;8.186;2023-09-30T03:44:30;150033.72;;;15.75;100.00
59531;BME280;45349;48.692;8.186;2023-09-30T03:47:03;150032.47;;;15.75;100.00
59531;BME280;45349;48.692;8.186;2023-09-30T03:49:30;150034.97;;;15.76;100.00
59531;BME280;45349;48.692;8.186;2023-09-30T03:52:02;150034.97;;;15.76;100.00
59531;BME280;45349;48.692;8.186;2023-09-30T03:54:29;150033.72;;;15.75;100.00
59531;BME280;45349;48.692;8.186;2023-09-30T03:57:02;150031.22;;;15.74;100.00
59531;BME280;45349;48.692;8.186;2023-09-30T03:59:29;150033.72;;;15.75;100.00
59531;BME280;45349;48.692;8.186;2023-09-30T04:02:03;150037.47;;;15.77;100.00
59531;BME280;45349;48.692;8.186;2023-09-30T04:04:31;150033.72;;;15.75;100.00
59531;BME280;45349;48.692;8.186;2023-09-30T04:07:02;150037.47;;;15.77;100.00
59531;BME280;45349;48.692;8.186;2023-09-30T04:09:31;150042.44;;;15.79;100.00
59531;BME280;45349;48.692;8.186;2023-09-30T04:12:02;150041.22;;;15.78;100.00
59531;BME280;45349;48.692;8.186;2023-09-30T04:14:29;150038.72;;;15.77;100.00
59531;BME280;45349;48.692;8.186;2023-09-30T04:17:22;150038.72;;;15.77;100.00
59531;BME280;45349;48.692;8.186;2023-09-30T04:19:48;150036.22;;;15.76;100.00
59531;BME280;45349;48.692;8.186;2023-09-30T04:22:17;150026.22;;;15.72;100.00
59531;BME280;45349;48.692;8.186;2023-09-30T04:24:44;150023.72;;;15.71;100.00
59531;BME280;45349;48.692;8.186;2023-09-30T04:27:10;150016.22;;;15.68;100.00
59531;BME280;45349;48.692;8.186;2023-09-30T04:29:37;150016.22;;;15.68;100.00
59531;BME280;45349;48.692;8.186;2023-09-30T04:32:04;150017.47;;;15.69;100.00
59531;BME280;45349;48.692;8.186;2023-09-30T04:34:33;150016.22;;;15.68;100.00
59531;BME280;45349;48.692;8.186;2023-09-30T04:37:02;150009.97;;;15.65;100.00
59531;BME280;45349;48.692;8.186;2023-09-30T04:39:29;150008.75;;;15.65;100.00
59531;BME280;45349;48.692;8.186;2023-09-30T04:42:02;150004.97;;;15.63;100.00
59531;BME280;45349;48.692;8.186;2023-09-30T04:44:30;150004.97;;;15.63;100.00
59531;BME280;45349;48.692;8.186;2023-09-30T04:47:04;150011.25;;;15.66;100.00
59531;BME280;45349;48.692;8.186;2023-09-30T04:49:30;149998.75;;;15.61;100.00
59531;BME280;45349;48.692;8.186;2023-09-30T04:52:03;149986.25;;;15.56;100.00
59531;BME280;45349;48.692;8.186;2023-09-30T04:54:32;149979.97;;;15.53;100.00
59531;BME280;45349;48.692;8.186;2023-09-30T04:57:02;149966.25;;;15.47;100.00
59531;BME280;45349;48.692;8.186;2023-09-30T04:59:29;149950.00;;;15.41;100.00
59531;BME280;45349;48.692;8.186;2023-09-30T05:02:21;149933.78;;;15.34;100.00
59531;BME280;45349;48.692;8.186;2023-09-30T05:04:48;149918.78;;;15.28;100.00
59531;BME280;45349;48.692;8.186;2023-09-30T05:07:16;149911.28;;;15.25;100.00
59531;BME280;45349;48.692;8.186;2023-09-30T05:09:42;149896.28;;;15.18;100.00
59531;BME280;45349;48.692;8.186;2023-09-30T05:12:10;149873.81;;;15.09;100.00
59531;BME280;45349;48.692;8.186;2023-09-30T05:14:37;149855.09;;;15.01;100.00
59531;BME280;45349;48.692;8.186;2023-09-30T05:17:04;149843.81;;;14.97;100.00
59531;BME280;45349;48.692;8.186;2023-09-30T05:19:31;149831.34;;;14.91;100.00
59531;BME280;45349;48.692;8.186;2023-09-30T05:22:02;149832.63;;;14.92;100.00
59531;BME280;45349;48.692;8.186;2023-09-30T05:24:30;149828.84;;;14.90;100.00
59531;BME280;45349;48.692;8.186;2023-09-30T05:27:02;149813.84;;;14.84;100.00
59531;BME280;45349;48.692;8.186;2023-09-30T05:29:29;149797.63;;;14.78;100.00
59531;BME280;45349;48.692;8.186;2023-09-30T05:32:02;149800.13;;;14.79;100.00
59531;BME280;45349;48.692;8.186;2023-09-30T05:34:29;149790.16;;;14.74;100.00
59531;BME280;45349;48.692;8.186;2023-09-30T05:37:21;149773.88;;;14.68;100.00
59531;BME280;45349;48.692;8.186;2023-09-30T05:39:49;149770.13;;;14.66;100.00
59531;BME280;45349;48.692;8.186;2023-09-30T05:42:16;149761.41;;;14.63;100.00
59531;BME280;45349;48.692;8.186;2023-09-30T05:44:44;149751.41;;;14.58;100.00
59531;BME280;45349;48.692;8.186;2023-09-30T05:47:11;149740.16;;;14.54;100.00
59531;BME280;45349;48.692;8.186;2023-09-30T05:49:38;149722.66;;;14.46;100.00
59531;BME280;45349;48.692;8.186;2023-09-30T05:52:04;149713.94;;;14.43;100.00
59531;BME280;45349;48.692;8.186;2023-09-30T05:54:31;149712.69;;;14.42;100.00
59531;BME280;45349;48.692;8.186;2023-09-30T05:57:03;149722.66;;;14.46;100.00
59531;BME280;45349;48.692;8.186;2023-09-30T05:59:30;149718.94;;;14.45;100.00
59531;BME280;45349;48.692;8.186;2023-09-30T06:02:02;149715.16;;;14.43;100.00
59531;BME280;45349;48.692;8.186;2023-09-30T06:04:30;149717.66;;;14.44;100.00
59531;BME280;45349;48.692;8.186;2023-09-30T06:07:02;149701.47;;;14.38;100.00
59531;BME280;45349;48.692;8.186;2023-09-30T06:09:28;149698.97;;;14.37;100.00
59531;BME280;45349;48.692;8.186;2023-09-30T06:12:04;149690.19;;;14.33;100.00
59531;BME280;45349;48.692;8.186;2023-09-30T06:14:31;149701.47;;;14.38;100.00
59531;BME280;45349;48.692;8.186;2023-09-30T06:17:02;149712.69;;;14.42;100.00
59531;BME280;45349;48.692;8.186;2023-09-30T06:19:29;149718.94;;;14.45;100.00
59531;BME280;45349;48.692;8.186;2023-09-30T06:22:00;149727.66;;;14.49;100.00
59531;BME280;45349;48.692;8.186;2023-09-30T06:24:28;149733.94;;;14.51;100.00
59531;BME280;45349;48.692;8.186;2023-09-30T06:26:59;149726.44;;;14.48;100.00
59531;BME280;45349;48.692;8.186;2023-09-30T06:29:26;149737.66;;;14.53;100.00
59531;BME280;45349;48.692;8.186;2023-09-30T06:31:54;149757.63;;;14.61;100.00
59531;BME280;45349;48.692;8.186;2023-09-30T06:34:20;149803.91;;;14.80;100.00
59531;BME280;45349;48.692;8.186;2023-09-30T06:36:47;149846.31;;;14.98;100.00
59531;BME280;45349;48.692;8.186;2023-09-30T06:39:14;149878.81;;;15.11;100.00
59531;BME280;45349;48.692;8.186;2023-09-30T06:41:41;149908.78;;;15.24;100.00
59531;BME280;45349;48.692;8.186;2023-09-30T06:44:11;149933.78;;;15.34;100.00
59531;BME280;45349;48.692;8.186;2023-09-30T06:46:39;149954.97;;;15.43;100.00
59531;BME280;45349;48.692;8.186;2023-09-30T06:49:06;149971.25;;;15.49;100.00
59531;BME280;45349;48.692;8.186;2023-09-30T06:51:32;149986.25;;;15.56;100.00
59531;BME280;45349;48.692;8.186;2023-09-30T06:53:59;149978.75;;;15.53;100.00
59531;BME280;45349;48.692;8.186;2023-09-30T06:56:26;149971.25;;;15.49;100.00
59531;BME280;45349;48.692;8.186;2023-09-30T06:58:53;149959.97;;;15.45;100.00
59531;BME280;45349;48.692;8.186;2023-09-30T07:01:20;149956.25;;;15.43;100.00
59531;BME280;45349;48.692;8.186;2023-09-30T07:03:47;149947.50;;;15.40;100.00
59531;BME280;45349;48.692;8.186;2023-09-30T07:06:21;149951.25;;;15.41;100.00
59531;BME280;45349;48.692;8.186;2023-09-30T07:08:49;149973.75;;;15.50;100.00
59531;BME280;45349;48.692;8.186;2023-09-30T07:11:16;149983.75;;;15.55;100.00
59531;BME280;45349;48.692;8.186;2023-09-30T07:13:42;150023.72;;;15.71;100.00
59531;BME280;45349;48.692;8.186;2023-09-30T07:16:09;150037.47;;;15.77;100.00
59531;BME280;45349;48.692;8.186;2023-09-30T07:18:35;150066.28;;;15.89;100.00
59531;BME280;45349;48.692;8.186;2023-09-30T07:21:03;150123.72;;;16.13;100.00
59531;BME280;45349;48.692;8.186;2023-09-30T07:23:30;150137.50;;;16.18;100.00
59531;BME280;45349;48.692;8.186;2023-09-30T07:25:57;150170.00;;;16.32;100.00
59531;BME280;45349;48.692;8.186;2023-09-30T07:28:24;150198.72;;;16.44;100.00
59531;BME280;45349;48.692;8.186;2023-09-30T07:30:51;150183.72;;;16.37;100.00
59531;BME280;45349;48.692;8.186;2023-09-30T07:33:17;150193.72;;;16.42;100.00
59531;BME280;45349;48.692;8.186;2023-09-30T07:35:44;150182.50;;;16.37;100.00
59531;BME280;45349;48.692;8.186;2023-09-30T07:38:12;150208.72;;;16.48;100.00
59531;BME280;45349;48.692;8.186;2023-09-30T07:40:38;150223.72;;;16.54;100.00
59531;BME280;45349;48.692;8.186;2023-09-30T07:43:05;150209.94;;;16.48;100.00
59531;BME280;45349;48.692;8.186;2023-09-30T07:45:32;150234.94;;;16.59;100.00
59531;BME280;45349;48.692;8.186;2023-09-30T07:47:58;150262.47;;;16.70;100.00
59531;BME280;45349;48.692;8.186;2023-09-30T07:50:25;150272.47;;;16.74;100.00
59531;BME280;45349;48.692;8.186;2023-09-30T07:52:52;150289.97;;;16.81;100.00
59531;BME280;45349;48.692;8.186;2023-09-30T07:55:20;150278.75;;;16.77;100.00
59531;BME280;45349;48.692;8.186;2023-09-30T07:57:46;150281.25;;;16.78;100.00
59531;BME280;45349;48.692;8.186;2023-09-30T08:00:13;150291.25;;;16.82;100.00
59531;BME280;45349;48.692;8.186;2023-09-30T08:02:41;150298.75;;;16.85;100.00
59531;BME280;45349;48.692;8.186;2023-09-30T08:05:09;150282.47;;;16.78;100.00
59531;BME280;45349;48.692;8.186;2023-09-30T08:07:36;150234.94;;;16.59;100.00
59531;BME280;45349;48.692;8.186;2023-09-30T08:10:03;150243.72;;;16.62;100.00
59531;BME280;45349;48.692;8.186;2023-09-30T08:12:32;150276.22;;;16.76;100.00
59531;BME280;45349;48.692;8.186;2023-09-30T08:14:58;150311.25;;;16.90;100.00
59531;BME280;45349;48.692;8.186;2023-09-30T08:17:25;150333.75;;;17.00;100.00
59531;BME280;45349;48.692;8.186;2023-09-30T08:19:51;150353.78;;;17.08;100.00
59531;BME280;45349;48.692;8.186;2023-09-30T08:22:18;150385.06;;;17.21;100.00
59531;BME280;45349;48.692;8.186;2023-09-30T08:24:45;150416.31;;;17.34;100.00
59531;BME280;45349;48.692;8.186;2023-09-30T08:27:11;150418.81;;;17.35;100.00
59531;BME280;45349;48.692;8.186;2023-09-30T08:29:40;150427.59;;;17.38;100.00
59531;BME280;45349;48.692;8.186;2023-09-30T08:32:07;150448.81;;;17.47;100.00
59531;BME280;45349;48.692;8.186;2023-09-30T08:34:33;150442.59;;;17.45;100.00
59531;BME280;45349;48.692;8.186;2023-09-30T08:37:02;150450.09;;;17.48;100.00
59531;BME280;45349;48.692;8.186;2023-09-30T08:39:29;150473.84;;;17.58;100.00
59531;BME280;45349;48.692;8.186;2023-09-30T08:42:04;150492.59;;;17.65;100.00
59531;BME280;45349;48.692;8.186;2023-09-30T08:44:32;150500.09;;;17.68;99.33
59531;BME280;45349;48.692;8.186;2023-09-30T08:47:03;150507.59;;;17.71;97.41
59531;BME280;45349;48.692;8.186;2023-09-30T08:49:34;150501.38;;;17.69;98.00
59531;BME280;45349;48.692;8.186;2023-09-30T08:52:03;150532.63;;;17.82;98.18
59531;BME280;45349;48.692;8.186;2023-09-30T08:54:31;150552.66;;;17.90;98.55
59531;BME280;45349;48.692;8.186;2023-09-30T08:57:03;150586.47;;;18.04;97.55
59531;BME280;45349;48.692;8.186;2023-09-30T08:59:31;150624.00;;;18.20;95.38
59531;BME280;45349;48.692;8.186;2023-09-30T09:02:08;150611.47;;;18.14;94.37
59531;BME280;45349;48.692;8.186;2023-09-30T09:04:35;150608.97;;;18.13;92.92
59531;BME280;45349;48.692;8.186;2023-09-30T09:07:02;150596.47;;;18.08;93.72
59531;BME280;45349;48.692;8.186;2023-09-30T09:09:29;150605.25;;;18.12;94.92
59531;BME280;45349;48.692;8.186;2023-09-30T09:12:02;150588.97;;;18.05;95.52
59531;BME280;45349;48.692;8.186;2023-09-30T09:14:39;150644.03;;;18.28;93.62
59531;BME280;45349;48.692;8.186;2023-09-30T09:17:09;150649.03;;;18.30;92.80
59531;BME280;45349;48.692;8.186;2023-09-30T09:19:35;150661.53;;;18.35;92.30
59531;BME280;45349;48.692;8.186;2023-09-30T09:22:03;150650.31;;;18.31;91.58
59531;BME280;45349;48.692;8.186;2023-09-30T09:24:32;150634.00;;;18.24;91.05
59531;BME280;45349;48.692;8.186;2023-09-30T09:27:07;150627.78;;;18.21;93.70
59531;BME280;45349;48.692;8.186;2023-09-30T09:29:34;150661.53;;;18.35;93.71
59531;BME280;45349;48.692;8.186;2023-09-30T09:32:14;150691.59;;;18.48;91.97
59531;BME280;45349;48.692;8.186;2023-09-30T09:34:42;150715.34;;;18.57;92.01
59531;BME280;45349;48.692;8.186;2023-09-30T09:37:16;150765.41;;;18.78;90.81
59531;BME280;45349;48.692;8.186;2023-09-30T09:39:50;150701.59;;;18.52;89.98
59531;BME280;45349;48.692;8.186;2023-09-30T09:42:24;150729.13;;;18.63;91.30
59531;BME280;45349;48.692;8.186;2023-09-30T09:44:52;150735.38;;;18.66;90.87
59531;BME280;45349;48.692;8.186;2023-09-30T09:47:22;150771.69;;;18.81;88.79
59531;BME280;45349;48.692;8.186;2023-09-30T09:49:50;150767.91;;;18.79;88.49
59531;BME280;45349;48.692;8.186;2023-09-30T09:52:18;150804.25;;;18.94;87.00
59531;BME280;45349;48.692;8.186;2023-09-30T09:54:45;150766.69;;;18.79;87.46
59531;BME280;45349;48.692;8.186;2023-09-30T09:57:12;150734.13;;;18.65;88.24
59531;BME280;45349;48.692;8.186;2023-09-30T09:59:40;150755.41;;;18.74;88.50
59531;BME280;45349;48.692;8.186;2023-09-30T10:02:10;150731.63;;;18.64;89.94
59531;BME280;45349;48.692;8.186;2023-09-30T10:04:41;150727.84;;;18.63;89.39
59531;BME280;45349;48.692;8.186;2023-09-30T10:07:10;150759.19;;;18.76;89.55
59531;BME280;45349;48.692;8.186;2023-09-30T10:09:41;150745.38;;;18.70;88.84
59531;BME280;45349;48.692;8.186;2023-09-30T10:12:11;150825.56;;;19.03;86.64
59531;BME280;45349;48.692;8.186;2023-09-30T10:14:38;150871.88;;;19.22;85.61
59531;BME280;45349;48.692;8.186;2023-09-30T10:17:05;150901.91;;;19.35;80.53
59531;BME280;45349;48.692;8.186;2023-09-30T10:19:31;150880.66;;;19.26;80.46
59531;BME280;45349;48.692;8.186;2023-09-30T10:22:22;150830.56;;;19.05;81.73
59531;BME280;45349;48.692;8.186;2023-09-30T10:24:54;150821.81;;;19.01;83.26
59531;BME280;45349;48.692;8.186;2023-09-30T10:27:31;150878.16;;;19.25;81.24
59531;BME280;45349;48.692;8.186;2023-09-30T10:30:06;150874.38;;;19.23;82.42
59531;BME280;45349;48.692;8.186;2023-09-30T10:33:08;150906.94;;;19.37;82.65
59531;BME280;45349;48.692;8.186;2023-09-30T10:35:47;150815.53;;;18.99;80.96
59531;BME280;45349;48.692;8.186;2023-09-30T10:38:40;150926.97;;;19.45;79.03
59531;BME280;45349;48.692;8.186;2023-09-30T10:41:07;150949.50;;;19.54;79.91
59531;BME280;45349;48.692;8.186;2023-09-30T10:43:35;150901.91;;;19.35;79.51
59531;BME280;45349;48.692;8.186;2023-09-30T10:46:03;150918.22;;;19.41;79.92
59531;BME280;45349;48.692;8.186;2023-09-30T10:48:36;150923.22;;;19.43;79.66
59531;BME280;45349;48.692;8.186;2023-09-30T10:51:13;150906.94;;;19.37;79.96
59531;BME280;45349;48.692;8.186;2023-09-30T10:53:46;150881.88;;;19.26;81.27
59531;BME280;45349;48.692;8.186;2023-09-30T10:56:14;150888.16;;;19.29;81.39
59531;BME280;45349;48.692;8.186;2023-09-30T10:58:41;150913.22;;;19.39;80.21
59531;BME280;45349;48.692;8.186;2023-09-30T11:01:08;150945.78;;;19.53;77.53
59531;BME280;45349;48.692;8.186;2023-09-30T11:03:35;151052.25;;;19.97;73.42
59531;BME280;45349;48.692;8.186;2023-09-30T11:06:02;151107.34;;;20.19;71.80
59531;BME280;45349;48.692;8.186;2023-09-30T11:08:30;151081.06;;;20.09;74.20
59531;BME280;45349;48.692;8.186;2023-09-30T11:10:57;151098.59;;;20.16;71.38
59531;BME280;45349;48.692;8.186;2023-09-30T11:13:31;151101.09;;;20.17;71.04
59531;BME280;45349;48.692;8.186;2023-09-30T11:16:00;151134.91;;;20.31;70.97
59531;BME280;45349;48.692;8.186;2023-09-30T11:18:28;151196.31;;;20.56;72.61
59531;BME280;45349;48.692;8.186;2023-09-30T11:21:04;151197.56;;;20.57;69.73
59531;BME280;45349;48.692;8.186;2023-09-30T11:23:31;151185.03;;;20.52;67.79
59531;BME280;45349;48.692;8.186;2023-09-30T11:25:59;151097.31;;;20.15;69.64
59531;BME280;45349;48.692;8.186;2023-09-30T11:28:35;151190.03;;;20.54;68.25
59531;BME280;45349;48.692;8.186;2023-09-30T11:31:02;151221.38;;;20.67;68.95
59531;BME280;45349;48.692;8.186;2023-09-30T11:33:29;151203.84;;;20.59;70.27
59531;BME280;45349;48.692;8.186;2023-09-30T11:35:57;151157.47;;;20.40;66.38
59531;BME280;45349;48.692;8.186;2023-09-30T11:38:24;151192.53;;;20.55;65.18
59531;BME280;45349;48.692;8.186;2023-09-30T11:41:02;151225.13;;;20.68;65.42
59531;BME280;45349;48.692;8.186;2023-09-30T11:43:32;151210.09;;;20.62;65.42
59531;BME280;45349;48.692;8.186;2023-09-30T11:46:09;151237.66;;;20.73;66.24
59531;BME280;45349;48.692;8.186;2023-09-30T11:48:36;151285.34;;;20.93;63.64
59531;BME280;45349;48.692;8.186;2023-09-30T11:51:03;151276.53;;;20.89;62.62
59531;BME280;45349;48.692;8.186;2023-09-30T11:53:30;151284.06;;;20.92;62.93
59531;BME280;45349;48.692;8.186;2023-09-30T11:55:57;151282.81;;;20.92;62.81
59531;BME280;45349;48.692;8.186;2023-09-30T11:58:27;151305.38;;;21.01;62.76
59531;BME280;45349;48.692;8.186;2023-09-30T12:00:54;151335.47;;;21.14;61.90
59531;BME280;45349;48.692;8.186;2023-09-30T12:03:22;151355.47;;;21.22;61.88
59531;BME280;45349;48.692;8.186;2023-09-30T12:05:49;151373.03;;;21.29;59.60
59531;BME280;45349;48.692;8.186;2023-09-30T12:08:16;151331.69;;;21.12;61.10
59531;BME280;45349;48.692;8.186;2023-09-30T12:10:44;151260.25;;;20.83;62.82
59531;BME280;45349;48.692;8.186;2023-09-30T12:13:11;151284.06;;;20.92;63.59
59531;BME280;45349;48.692;8.186;2023-09-30T12:15:39;151315.41;;;21.05;59.64
59531;BME280;45349;48.692;8.186;2023-09-30T12:18:05;151319.16;;;21.07;60.86
59531;BME280;45349;48.692;8.186;2023-09-30T12:20:46;151348.00;;;21.19;60.80
59531;BME280;45349;48.692;8.186;2023-09-30T12:23:13;151348.00;;;21.19;60.64
59531;BME280;45349;48.692;8.186;2023-09-30T12:25:45;151320.44;;;21.07;57.74
59531;BME280;45349;48.692;8.186;2023-09-30T12:28:23;151332.97;;;21.13;57.36
59531;BME280;45349;48.692;8.186;2023-09-30T12:30:59;151316.66;;;21.06;57.55
59531;BME280;45349;48.692;8.186;2023-09-30T12:33:28;151306.63;;;21.02;58.27
59531;BME280;45349;48.692;8.186;2023-09-30T12:35:59;151327.94;;;21.11;58.88
59531;BME280;45349;48.692;8.186;2023-09-30T12:38:28;151349.25;;;21.19;58.43
59531;BME280;45349;48.692;8.186;2023-09-30T12:40:59;151321.66;;;21.08;58.35
59531;BME280;45349;48.692;8.186;2023-09-30T12:43:37;151351.75;;;21.20;57.51
59531;BME280;45349;48.692;8.186;2023-09-30T12:46:09;151384.34;;;21.34;58.21
59531;BME280;45349;48.692;8.186;2023-09-30T12:48:39;151406.91;;;21.43;56.91
59531;BME280;45349;48.692;8.186;2023-09-30T12:51:05;151391.88;;;21.37;54.78
59531;BME280;45349;48.692;8.186;2023-09-30T12:53:34;151434.50;;;21.55;54.71
59531;BME280;45349;48.692;8.186;2023-09-30T12:56:00;151477.16;;;21.72;55.88